Home > Products > Valid Products > MTR

000
SAUS43 KUNR 020158
MTR2WX
METAR K2WX 020156Z AUTO 11003KT 16/08 A2987 RMK AO1 SLP108 T01610078





000
SAUS43 KUNR 020157
MTRD07
METAR KD07 020156Z AUTO 36007KT 12/11 A2992 RMK AO1 WSHFT 0105
SLP134 P0002 T01220106





000
SAUS43 KUNR 020127
MTRD07
SPECI KD07 020125Z AUTO 34013G19KT 14/09 A2994 RMK AO1 WSHFT 0105
T01390094





000
SAUS43 KUNR 020058
MTRD07
METAR KD07 020056Z AUTO 27006KT 16/11 A2991 RMK AO1 SLP128 T01610106





000
SAUS43 KUNR 020057
MTR2WX
METAR K2WX 020056Z AUTO 07005KT 18/08 A2986 RMK AO1 SLP109 T01780083





000
SAUS43 KUNR 012357
MTR2WX
METAR K2WX 012356Z AUTO 33006KT 18/07 A2985 RMK AO1 SLP103 60010
T01830072 10217 20133 55002





000
SAUS43 KUNR 012357
MTRD07
METAR KD07 012356Z AUTO 25006KT 17/10 A2990 RMK AO1 SLP124 60001
T01720100 10239 20172





000
SAUS43 KUNR 012257
MTR2WX
METAR K2WX 012256Z AUTO 35008KT 20/07 A2984 RMK AO1 SLP099 T02000072





000
SAUS43 KUNR 012257
MTRD07
METAR KD07 012256Z AUTO 25009KT 18/09 A2990 RMK AO1 SLP124 T01830094





000
SAUS43 KUNR 012157
MTR2WX
METAR K2WX 012156Z AUTO 27010KT 18/08 A2984 RMK AO1 SLP100 T01780083





000
SAUS43 KUNR 012157
MTRD07
METAR KD07 012156Z AUTO 25006KT 19/10 A2988 RMK AO1 SLP117 P0001
T01940100





000
SAUS43 KUNR 012057
MTRD07
METAR KD07 012056Z AUTO 31013G22KT 20/08 A2987 RMK AO1 SLP112
T02000083 56005





000
SAUS43 KUNR 012057
MTR2WX
METAR K2WX 012056Z AUTO 29005KT 19/09 A2986 RMK AO1 PK WND
30026/2032 SLP103 60010 T01890094 56001





000
SAUS43 KUNR 011957
MTR2WX
METAR K2WX 011956Z AUTO VRB03KT 17/08 A2986 RMK AO1 PK WND
30032/1924 SLP107 P0010 T01670083





000
SAUS43 KUNR 011957
MTRD07
METAR KD07 011956Z AUTO 31008KT 24/11 A2987 RMK AO1 SLP108 T02390106





000
SAUS43 KUNR 011857
MTR2WX
METAR K2WX 011856Z AUTO 31010G15KT 20/07 A2985 RMK AO1 SLP100
T02000072





000
SAUS43 KUNR 011857
MTRD07
METAR KD07 011856Z AUTO 31012G16KT 23/11 A2987 RMK AO1 SLP109
T02280111





000
SAUS43 KUNR 011758
MTR2WX
METAR K2WX 011756Z AUTO 31010KT 21/07 A2986 RMK AO1 SLP104 T02060072
10206 20094 51008





000
SAUS43 KUNR 011757
MTRD07
METAR KD07 011756Z AUTO 30011KT 22/11 A2988 RMK AO1 SLP112 T02220111
10222 20111 51005





000
SAUS43 KUNR 011657
MTR2WX
METAR K2WX 011656Z AUTO 34010KT 20/08 A2985 RMK AO1 SLP101 T02000078





000
SAUS43 KUNR 011657
MTRD07
METAR KD07 011656Z AUTO 29010KT 21/11 A2988 RMK AO1 SLP111 T02110106





000
SAUS43 KUNR 011558
MTR2WX
METAR K2WX 011556Z AUTO 30011KT 18/09 A2984 RMK AO1 SLP099 T01830094





000
SAUS43 KUNR 011557
MTRD07
METAR KD07 011556Z AUTO 29009KT 19/11 A2987 RMK AO1 SLP111 T01940106





000
SAUS43 KUNR 011458
MTRD07
METAR KD07 011456Z AUTO 28011KT 17/11 A2987 RMK AO1 SLP111 T01670106
51007





000
SAUS43 KUNR 011457
MTR2WX
METAR K2WX 011456Z AUTO 29013KT 16/09 A2983 RMK AO1 SLP098 T01560094
51008





000
SAUS43 KUNR 011358
MTR2WX
METAR K2WX 011356Z AUTO 28009KT 13/09 A2982 RMK AO1 SLP096 T01330094





000
SAUS43 KUNR 011357
MTRD07
METAR KD07 011356Z AUTO 26007KT 14/11 A2986 RMK AO1 SLP109 T01390111





000
SAUS43 KUNR 011258
MTR2WX
METAR K2WX 011256Z AUTO 26005KT 10/08 A2982 RMK AO1 SLP098 T01000083





000
SAUS43 KUNR 011257
MTRD07
METAR KD07 011256Z AUTO 28007KT 12/10 A2985 RMK AO1 SLP108 T01220100





000
SAUS43 KUNR 011158
MTR2WX
METAR K2WX 011156Z AUTO 26008KT 09/07 A2981 RMK AO1 SLP093 70038
T00940072 10106 20089 53000





000
SAUS43 KUNR 011157
MTRD07
METAR KD07 011156Z AUTO 27009KT 11/09 A2984 RMK AO1 SLP106 70003
T01110089 10122 20089 58004





000
SAUS43 KUNR 011057
MTRD07
METAR KD07 011056Z AUTO 24005KT 10/09 A2985 RMK AO1 SLP108 T01000089





000
SAUS43 KUNR 011057
MTR2WX
METAR K2WX 011056Z AUTO 29006KT 09/07 A2981 RMK AO1 SLP086 T00890072





000
SAUS43 KUNR 010958
MTR2WX
METAR K2WX 010956Z AUTO 25005KT 11/08 A2980 RMK AO1 SLP082 T01060083





000
SAUS43 KUNR 010957
MTRD07
METAR KD07 010956Z AUTO 00000KT 10/09 A2986 RMK AO1 SLP111 T01000089





000
SAUS43 KUNR 010858
MTRD07
METAR KD07 010856Z AUTO 28004KT 10/09 A2985 RMK AO1 SLP109 T01000089
51012





000
SAUS43 KUNR 010857
MTR2WX
METAR K2WX 010856Z AUTO 26008KT 10/08 A2981 RMK AO1 SLP084 T01000083
50003





000
SAUS43 KUNR 010758
MTRD07
METAR KD07 010756Z AUTO 28007KT 10/08 A2984 RMK AO1 SLP104 T01000083





000
SAUS43 KUNR 010757
MTR2WX
METAR K2WX 010756Z AUTO 26008KT 10/08 A2981 RMK AO1 SLP086 T01000083





000
SAUS43 KUNR 010657
MTR2WX
METAR K2WX 010656Z AUTO 26007KT 09/08 A2980 RMK AO1 SLP086 T00940083
402280094





000
SAUS43 KUNR 010657
MTRD07
METAR KD07 010656Z AUTO 01008KT 12/09 A2985 RMK AO1 SLP104 T01170089
402000117





000
SAUS43 KUNR 010557
MTRD07
METAR KD07 010556Z AUTO 27006KT 12/09 A2982 RMK AO1 SLP093 T01220094
10161 20122 53002





000
SAUS43 KUNR 010557
MTR2WX
METAR K2WX 010556Z AUTO 26009KT 09/08 A2979 RMK AO1 SLP085 60034
T00940083 10139 20094 55001





000
SAUS43 KUNR 010458
MTR2WX
METAR K2WX 010456Z AUTO 27008KT 10/09 A2979 RMK AO1 SLP085 T01000089





000
SAUS43 KUNR 010457
MTRD07
METAR KD07 010456Z AUTO 25004KT 13/10 A2980 RMK AO1 SLP085 T01330100





000
SAUS43 KUNR 010358
MTR2WX
METAR K2WX 010356Z AUTO 26008KT 10/09 A2980 RMK AO1 SLP086 T01000089





000
SAUS43 KUNR 010357
MTRD07
METAR KD07 010356Z AUTO 28009KT 13/11 A2978 RMK AO1 SLP083 T01330111





000
SAUS43 KUNR 010258
MTR2WX
METAR K2WX 010256Z AUTO 25006KT 11/09 A2980 RMK AO1 SLP087 60034
T01110094 51017





000
SAUS43 KUNR 010257
MTRD07
METAR KD07 010256Z AUTO 30017KT 14/12 A2981 RMK AO1 SLP092 T01390117
53016





000
SAUS43 KUNR 010158
MTRD07
METAR KD07 010156Z AUTO 30007KT 14/12 A2978 RMK AO1 SLP083 T01440122





000
SAUS43 KUNR 010158
MTRD07
METAR KD07 010156Z AUTO 30007KT 14/12 A2978 RMK AO1 SLP083 T01440122





000
SAUS43 KUNR 010157
MTR2WX
METAR K2WX 010156Z AUTO 12007KT 12/11 A2979 RMK AO1 SLP082 P0005
T01220106





000
SAUS43 KUNR 010157
MTR2WX
METAR K2WX 010156Z AUTO 12007KT 12/11 A2979 RMK AO1 SLP082 P0005
T01220106





000
SAUS43 KUNR 010058
MTR2WX
METAR K2WX 010056Z AUTO 36014KT 12/09 A2980 RMK AO1 PK WND
35033/0031 SLP091 P0029 T01220094





000
SAUS43 KUNR 010057
MTRD07
METAR KD07 010056Z AUTO 31006KT 16/14 A2977 RMK AO1 SLP077 T01610139





000
SAUS43 KUNR 312358
MTR2WX
METAR K2WX 312356Z AUTO 04015KT 14/11 A2974 RMK AO1 SLP068 T01390106
10228 20139 53010





000
SAUS43 KUNR 312357
MTRD07
METAR KD07 312356Z AUTO 33003KT 16/13 A2976 RMK AO1 SLP075 P0002
60003 T01560133 10200 20150 50003





000
SAUS43 KUNR 312258
MTR2WX
METAR K2WX 312256Z AUTO 04009KT 20/10 A2972 RMK AO1 SLP054 T02000100





000
SAUS43 KUNR 312257
MTRD07
METAR KD07 312256Z AUTO 30009KT 16/15 A2977 RMK AO1 SLP076 P0001
T01610150





000
SAUS43 KUNR 312158
MTRD07
METAR KD07 312156Z AUTO 30006KT 17/15 A2977 RMK AO1 SLP077 T01720150





000
SAUS43 KUNR 312157
MTR2WX
METAR K2WX 312156Z AUTO 00000KT 21/08 A2972 RMK AO1 SLP051 T02110078





000
SAUS43 KUNR 312058
MTRD07
METAR KD07 312056Z AUTO 31007KT 18/14 A2975 RMK AO1 SLP068 T01830139
58003





000
SAUS43 KUNR 312058
MTR2WX
METAR K2WX 312056Z AUTO VRB03KT 21/10 A2971 RMK AO1 SLP046 T02110100
58004 $





000
SAUS43 KUNR 311958
MTRD07
METAR KD07 311956Z AUTO 29005KT 19/13 A2975 RMK AO1 SLP068 T01940133





000
SAUS43 KUNR 311957
MTR2WX
METAR K2WX 311956Z AUTO 08004KT 19/12 A2971 RMK AO1 SLP049 T01940122
$





000
SAUS43 KUNR 311857
MTRD07
METAR KD07 311856Z AUTO 27004KT 19/13 A2976 RMK AO1 SLP070 T01940128





000
SAUS43 KUNR 311857
MTR2WX
METAR K2WX 311856Z AUTO 33006KT 18/13 A2973 RMK AO1 SLP054 T01780128
$





000
SAUS43 KUNR 311758
MTR2WX
METAR K2WX 311756Z AUTO 30011KT 17/14 A2972 RMK AO1 SLP053 P0003
60004 T01720139 10172 20117 50006 $





000
SAUS43 KUNR 311758
MTRD07
METAR KD07 311756Z AUTO 31006KT 19/13 A2976 RMK AO1 SLP070 T01940133
10194 20139 51007





000
SAUS43 KUNR 311657
MTR2WX
METAR K2WX 311656Z AUTO 28009KT 17/14 A2973 RMK AO1 SLP055 P0001
T01670139 $





000
SAUS43 KUNR 311657
MTRD07
METAR KD07 311656Z AUTO 31008KT 19/14 A2976 RMK AO1 SLP068 T01940139





000
SAUS43 KUNR 311557
MTRD07
METAR KD07 311556Z AUTO 28010KT 18/14 A2976 RMK AO1 SLP069 T01780144





000
SAUS43 KUNR 311557
MTR2WX
METAR K2WX 311556Z AUTO 28007KT 17/14 A2972 RMK AO1 SLP053 T01670144
$





000
SAUS43 KUNR 311457
MTRD07
METAR KD07 311456Z AUTO 29008KT 17/14 A2974 RMK AO1 SLP063 T01670144
51006





000
SAUS43 KUNR 311457
MTR2WX
METAR K2WX 311456Z AUTO 27005KT 16/14 A2970 RMK AO1 SLP041 T01560139
51003 $





000
SAUS43 KUNR 311358
MTRD07
METAR KD07 311356Z AUTO 28011KT 16/14 A2974 RMK AO1 SLP060 T01560139





000
SAUS43 KUNR 311357
MTR2WX
METAR K2WX 311356Z AUTO 28005KT 14/12 A2969 RMK AO1 SLP037 T01390122
$





000
SAUS43 KUNR 311258
MTR2WX
METAR K2WX 311256Z AUTO 23006KT 12/11 A2971 RMK AO1 SLP042 T01220111
$





000
SAUS43 KUNR 311257
MTRD07
METAR KD07 311256Z AUTO 28011KT 15/13 A2972 RMK AO1 SLP055 T01500133





000
SAUS43 KUNR 311157
MTRD07
METAR KD07 311156Z AUTO 26008KT 14/13 A2972 RMK AO1 SLP053 70003
T01390133 10161 20139 53013





000
SAUS43 KUNR 311157
MTR2WX
METAR K2WX 311156Z AUTO 28007KT 12/11 A2969 RMK AO1 SLP035 7////
T01220111 10161 20117 53012 $





000
SAUS43 KUNR 311057
MTRD07
METAR KD07 311056Z AUTO 28008KT 14/14 A2968 RMK AO1 SLP038 T01440139





000
SAUS43 KUNR 311057
MTR2WX
METAR K2WX 311056Z AUTO 29008KT 12/12 A2966 RMK AO1 SLP024 T01220117
$





000
SAUS43 KUNR 310958
MTRD07
METAR KD07 310956Z AUTO 28011KT 16/14 A2969 RMK AO1 SLP040 T01560144





000
SAUS43 KUNR 310957
MTR2WX
METAR K2WX 310956Z AUTO 28008KT 13/12 A2966 RMK AO1 SLP024 T01280117
$





000
SAUS43 KUNR 310857
MTR2WX
METAR K2WX 310856Z AUTO 28011KT 14/13 A2965 RMK AO1 SLP022 T01390128
58009 $





000
SAUS43 KUNR 310857
MTRD07
METAR KD07 310856Z AUTO 28012KT 16/14 A2968 RMK AO1 SLP037 T01560144
51000





000
SAUS43 KUNR 310758
MTRD07
METAR KD07 310756Z AUTO 26011KT 16/14 A2967 RMK AO1 SLP035 T01610144





000
SAUS43 KUNR 310758
MTR2WX
METAR K2WX 310756Z AUTO 27012KT 15/14 A2966 RMK AO1 SLP027 T01500139
$





000
SAUS43 KUNR 310658
MTR2WX
METAR K2WX 310656Z AUTO 27013KT 16/14 A2968 RMK AO1 SLP033 T01610144
402830111 $





000
SAUS43 KUNR 310657
MTRD07
METAR KD07 310656Z AUTO 28013KT 16/14 A2970 RMK AO1 SLP047 T01610144
402610117





000
SAUS43 KUNR 310558
MTR2WX
METAR K2WX 310556Z AUTO 27012KT 16/15 A2968 RMK AO1 SLP039 P0002
6//// T01610150 10283 20161 $





000
SAUS43 KUNR 310558
MTRD07
METAR KD07 310556Z AUTO 32008KT 16/15 A2968 RMK AO1 SLP039 60003
T01610150 10250 20161 50020





000
SAUS43 KUNR 310457
MTR2WX
METAR K2WX 310456Z AUTO 00000KT 16/15 A2968 RMK AO1 SLP041 P0002
T01610150 $





000
SAUS43 KUNR 310457
MTRD07
METAR KD07 310456Z AUTO 30008KT 17/16 A2969 RMK AO1 SLP044 T01720156





000
SAUS43 KUNR 310358
MTR2WX
METAR K2WX 310356Z AUTO 35005KT 17/15 A2969 RMK AO1 SLP045 P0003
T01670150 $





000
SAUS43 KUNR 310357
MTRD07
METAR KD07 310356Z AUTO 22010KT 17/15 A2967 RMK AO1 PRESRR SLP041
T01720150





000
SAUS43 KUNR 310257
MTRD07
METAR KD07 310256Z AUTO 14020G29KT 18/14 A2961 RMK AO1 PK WND
14032/0230 SLP021 P0003 60003 T01830139 56012





000
SAUS43 KUNR 310157
MTRD07
METAR KD07 310156Z AUTO 14020G31KT 23/16 A2962 RMK AO1 PK WND
13031/0152 SLP020 T02330161





000
SAUS43 KUNR 310102 COR
MTR2WX
METAR K2WX 310056Z AUTO 07017KT 23/16 A2950 RMK AO1 PRESFR SLP973
T02330161





000
SAUS43 KUNR 310101 COR
MTR2WX
METAR K2WX 310056Z AUTO 07017KT 23/16 A2950 RMK AO1 PRESFR SLP973
T02330161





000
SAUS43 KUNR 310057
MTRD07
METAR KD07 310056Z AUTO 12018G26KT 23/16 A2962 RMK AO1 PK WND
12030/0004 SLP022 T02330161





000
SAUS43 KUNR 310000
MTR2WX
METAR K2WX 302356Z AUTO 06013KT 25/16 A2960 RMK AO1 SLP009 T02500161
10283 20233 56019





000
SAUS43 KUNR 302357
MTRD07
METAR KD07 302356Z AUTO 13021G28KT 25/16 A2965 RMK AO1 PK WND
14031/2320 SLP030 T02500161 10261 20211 56028





000
SAUS43 KUNR 302300
MTR2WX
METAR K2WX 302256Z AUTO 08012KT 27/16 A2962 RMK AO1 SLP011 T02720156





000
SAUS43 KUNR 302257
MTRD07
METAR KD07 302256Z AUTO 13020G28KT 26/17 A2967 RMK AO1 PK WND
14029/2237 SLP038 T02610167





000
SAUS43 KUNR 302201
MTR2WX
METAR K2WX 302156Z AUTO 10011KT 28/15 A2964 RMK AO1 SLP017 T02780150





000
SAUS43 KUNR 302157
MTRD07
METAR KD07 302156Z AUTO 14020G27KT 26/16 A2971 RMK AO1 PK WND
15028/2133 SLP050 T02560161





000
SAUS43 KUNR 302100
MTR2WX
METAR K2WX 302056Z AUTO 14008G16KT 060V170 28/15 A2967 RMK AO1
SLP026 T02780150 56022





000
SAUS43 KUNR 302057
MTRD07
METAR KD07 302056Z AUTO 15020G28KT 26/16 A2974 RMK AO1 PK WND
15029/2007 SLP060 T02560161 58028





000
SAUS43 KUNR 302000
MTR2WX
METAR K2WX 301956Z AUTO 15017KT 26/14 A2969 RMK AO1 PK WND
13026/1917 SLP035 T02610144





000
SAUS43 KUNR 301957
MTRD07
METAR KD07 301956Z AUTO 15019G28KT 24/16 A2977 RMK AO1 PK WND
16029/1924 SLP071 T02440156





000
SAUS43 KUNR 301900
MTR2WX
METAR K2WX 301856Z AUTO 15022G26KT 24/14 A2970 RMK AO1 PK WND
15027/1854 SLP042 T02440139





000
SAUS43 KUNR 301857
MTRD07
METAR KD07 301856Z AUTO 15019G25KT 23/15 A2981 RMK AO1 PK WND
14028/1830 SLP086 T02280150





000
SAUS43 KUNR 301802 COR
MTR2WX
METAR K2WX 301756Z AUTO 15016G25KT 23/14 A2974 RMK AO1 SLP054
T02330139 10233 20117 58028





000
SAUS43 KUNR 301801 COR
MTR2WX
METAR K2WX 301756Z AUTO 15016G25KT 23/14 A2974 RMK AO1





000
SAUS43 KUNR 301800
MTR2WX
METAR K2WX 301756Z AUTO 15016G25KT 23/14 A2974 RMK AO1 SLP054
T02330139 10233 20117 58028





000
SAUS43 KUNR 301757
MTRD07
METAR KD07 301756Z AUTO 14019G26KT 21/14 A2983 RMK AO1 PK WND
13026/1724 SLP095 T02110144 10211 20122 58031





000
SAUS43 KUNR 301700
MTR2WX
METAR K2WX 301656Z AUTO 14014KT 21/14 A2977 RMK AO1 SLP068 T02110139





000
SAUS43 KUNR 301657
MTRD07
METAR KD07 301656Z AUTO 14018G24KT 19/14 A2987 RMK AO1 SLP109
T01940139





000
SAUS43 KUNR 301600
MTR2WX
METAR K2WX 301556Z AUTO 14015KT 16/13 A2980 RMK AO1 PK WND
16026/1524 SLP085 T01610133





000
SAUS43 KUNR 301557
MTRD07
METAR KD07 301556Z AUTO 14017G22KT 17/13 A2990 RMK AO1 SLP122
T01720128





000
SAUS43 KUNR 301502 COR
MTR2WX
METAR K2WX 301456Z AUTO 14015KT 14/13 A2982 RMK AO1 SLP092 T01390128
58013





000
SAUS43 KUNR 301501 COR
MTR2WX
METAR K2WX 301456Z AUTO 14015KT 14/13 A2982 RMK AO1 SLP092 T01390128
58013





000
SAUS43 KUNR 301457
MTRD07
METAR KD07 301456Z AUTO 14015G20KT 15/13 A2993 RMK AO1 SLP132
T01500128 57008





000
SAUS43 KUNR 301400
MTR2WX
METAR K2WX 301356Z AUTO 13013KT 14/13 A2984 RMK AO1 SLP094 T01440128





000
SAUS43 KUNR 301357
MTRD07
METAR KD07 301356Z AUTO 14013KT 13/12 A2994 RMK AO1 SLP137 T01280122





000
SAUS43 KUNR 301300
MTR2WX
METAR K2WX 301256Z AUTO 14013KT 12/12 A2986 RMK AO1 SLP100 T01220117





000
SAUS43 KUNR 301257
MTRD07
METAR KD07 301256Z AUTO 14012KT 12/12 A2995 RMK AO1 SLP138 T01220122





000
SAUS43 KUNR 301202 COR
MTR2WX
METAR K2WX 301156Z AUTO 14009KT 12/11 A2987 RMK AO1 SLP102 T01170111
10133 20111 56013





000
SAUS43 KUNR 301201 COR
MTR2WX
METAR K2WX 301156Z AUTO 14009KT 12/11 A2987 RMK AO1 SLP102 T01170111
10133 20111 56013





000
SAUS43 KUNR 301157
MTRD07
METAR KD07 301156Z AUTO 14010KT 12/12 A2995 RMK AO1 SLP138 T01220117
10139 20117 57008





000
SAUS43 KUNR 301100
MTR2WX
METAR K2WX 301056Z AUTO 13007KT 12/11 A2987 RMK AO1 SLP104 T01170106





000
SAUS43 KUNR 301058
MTRD07
METAR KD07 301056Z AUTO 14009KT 12/11 A2996 RMK AO1 SLP139 T01170111





000
SAUS43 KUNR 301000
MTR2WX
METAR K2WX 300956Z AUTO 13007KT 12/11 A2989 RMK AO1 SLP109 T01170106





000
SAUS43 KUNR 300957
MTRD07
METAR KD07 300956Z AUTO 15009KT 12/11 A2997 RMK AO1 SLP142 T01220111





000
SAUS43 KUNR 300902 COR
MTR2WX
METAR K2WX 300856Z AUTO 12008KT 12/11 A2991 RMK AO1 SLP114 T01170106
58013





000
SAUS43 KUNR 300901 COR
MTR2WX
METAR K2WX 300856Z AUTO 12008KT 12/11 A2991 RMK AO1 SLP114 T01170106
58013





000
SAUS43 KUNR 300857
MTRD07
METAR KD07 300856Z AUTO 14008KT 13/12 A2998 RMK AO1 SLP145 T01280122
58008





000
SAUS43 KUNR 300800
MTR2WX
METAR K2WX 300756Z AUTO 12008KT 12/11 A2993 RMK AO1 SLP123 T01220106





000
SAUS43 KUNR 300757
MTRD07
METAR KD07 300756Z AUTO 14006KT 13/12 A3000 RMK AO1 SLP154 T01280122





000
SAUS43 KUNR 300700
MTR2WX
METAR K2WX 300656Z AUTO 17006KT 12/11 A2995 RMK AO1 SLP130 T01220106
402330122





000
SAUS43 KUNR 300657
MTRD07
METAR KD07 300656Z AUTO 17007KT 13/12 A3001 RMK AO1 SLP158 T01330122
402440128





000
SAUS43 KUNR 300600
MTR2WX
METAR K2WX 300556Z AUTO 10005KT 13/11 A2995 RMK AO1 SLP131 T01330106
10217 20133 50004





000
SAUS43 KUNR 300557
MTRD07
METAR KD07 300556Z AUTO 09006KT 13/12 A3001 RMK AO1 SLP155 T01280117
10217 20128 51006





000
SAUS43 KUNR 300500
MTR2WX
METAR K2WX 300456Z AUTO 07006KT 13/11 A2995 RMK AO1 SLP131 T01330106





000
SAUS43 KUNR 300457
MTRD07
METAR KD07 300456Z AUTO 06006KT 13/12 A3000 RMK AO1 SLP151 T01330117





000
SAUS43 KUNR 300400
MTR2WX
METAR K2WX 300356Z AUTO 07008KT 14/11 A2994 RMK AO1 SLP128 T01390106





000
SAUS43 KUNR 300359
MTRD07
METAR KD07 300356Z AUTO 06006KT 14/12 A3000 RMK AO1 SLP151 T01440117





000
SAUS43 KUNR 300300
MTR2WX
METAR K2WX 300256Z AUTO 06006KT 16/11 A2994 RMK AO1 SLP124 T01610111
53001





000
SAUS43 KUNR 300257
MTRD07
METAR KD07 300256Z AUTO 03004KT 16/12 A2999 RMK AO1 SLP148 T01610117
53010





    US Dept of Commerce
    National Oceanic and Atmospheric Administration
    National Weather Service
    1325 East West Highway
    Silver Spring, MD 20910
    Page Author: NWS Internet Services Team
Disclaimer
Information Quality
Credits
Glossary
Privacy Policy
Freedom of Information Act (FOIA)
About Us
Career Opportunities